sensor_id;sensor_type;location;lat;lon;timestamp;P1;durP1;ratioP1;P2;durP2;ratioP2
41059;SDS011;26811;53.160;8.202;2023-02-11T00:00:11;60.65;;;24.80;;
41059;SDS011;26811;53.160;8.202;2023-02-11T00:05:12;67.82;;;24.27;;
41059;SDS011;26811;53.160;8.202;2023-02-11T00:10:13;56.08;;;22.58;;
41059;SDS011;26811;53.160;8.202;2023-02-11T00:15:13;59.10;;;22.48;;
41059;SDS011;26811;53.160;8.202;2023-02-11T00:20:14;58.58;;;22.63;;
41059;SDS011;26811;53.160;8.202;2023-02-11T00:25:14;65.75;;;23.30;;
41059;SDS011;26811;53.160;8.202;2023-02-11T00:30:15;59.90;;;22.48;;
41059;SDS011;26811;53.160;8.202;2023-02-11T00:35:16;61.63;;;22.65;;
41059;SDS011;26811;53.160;8.202;2023-02-11T00:40:17;53.20;;;21.80;;
41059;SDS011;26811;53.160;8.202;2023-02-11T00:45:17;51.20;;;20.88;;
41059;SDS011;26811;53.160;8.202;2023-02-11T00:50:20;60.03;;;23.13;;
41059;SDS011;26811;53.160;8.202;2023-02-11T00:55:20;55.97;;;21.15;;
41059;SDS011;26811;53.160;8.202;2023-02-11T01:00:21;57.83;;;21.33;;
41059;SDS011;26811;53.160;8.202;2023-02-11T01:05:23;58.00;;;21.90;;
41059;SDS011;26811;53.160;8.202;2023-02-11T01:10:24;55.35;;;21.52;;
41059;SDS011;26811;53.160;8.202;2023-02-11T01:15:26;57.72;;;20.80;;
41059;SDS011;26811;53.160;8.202;2023-02-11T01:20:27;60.28;;;21.45;;
41059;SDS011;26811;53.160;8.202;2023-02-11T01:25:28;58.65;;;21.73;;
41059;SDS011;26811;53.160;8.202;2023-02-11T01:30:29;58.60;;;21.25;;
41059;SDS011;26811;53.160;8.202;2023-02-11T01:35:30;52.67;;;20.60;;
41059;SDS011;26811;53.160;8.202;2023-02-11T01:40:30;50.10;;;19.77;;
41059;SDS011;26811;53.160;8.202;2023-02-11T01:50:40;54.35;;;19.98;;
41059;SDS011;26811;53.160;8.202;2023-02-11T01:55:44;58.25;;;18.65;;
41059;SDS011;26811;53.160;8.202;2023-02-11T02:01:03;52.55;;;17.80;;
41059;SDS011;26811;53.160;8.202;2023-02-11T02:06:18;45.08;;;16.90;;
41059;SDS011;26811;53.160;8.202;2023-02-11T02:11:25;51.00;;;18.20;;
41059;SDS011;26811;53.160;8.202;2023-02-11T02:16:30;44.83;;;17.08;;
41059;SDS011;26811;53.160;8.202;2023-02-11T02:32:26;46.28;;;16.63;;
41059;SDS011;26811;53.160;8.202;2023-02-11T02:42:55;51.58;;;16.63;;
41059;SDS011;26811;53.160;8.202;2023-02-11T02:47:57;46.10;;;16.55;;
41059;SDS011;26811;53.160;8.202;2023-02-11T02:53:18;50.03;;;17.45;;
41059;SDS011;26811;53.160;8.202;2023-02-11T03:03:41;75.25;;;24.65;;
41059;SDS011;26811;53.160;8.202;2023-02-11T03:09:16;71.63;;;21.73;;
41059;SDS011;26811;53.160;8.202;2023-02-11T03:14:33;60.13;;;20.55;;
41059;SDS011;26811;53.160;8.202;2023-02-11T03:19:36;75.82;;;25.10;;
41059;SDS011;26811;53.160;8.202;2023-02-11T03:24:40;71.53;;;21.35;;
41059;SDS011;26811;53.160;8.202;2023-02-11T03:29:42;68.60;;;23.10;;
41059;SDS011;26811;53.160;8.202;2023-02-11T03:34:57;76.63;;;23.83;;
41059;SDS011;26811;53.160;8.202;2023-02-11T03:45:14;76.97;;;26.13;;
41059;SDS011;26811;53.160;8.202;2023-02-11T03:50:18;66.10;;;20.30;;
41059;SDS011;26811;53.160;8.202;2023-02-11T03:55:20;55.57;;;19.70;;
41059;SDS011;26811;53.160;8.202;2023-02-11T04:00:28;78.40;;;23.63;;
41059;SDS011;26811;53.160;8.202;2023-02-11T04:05:31;76.07;;;25.88;;
41059;SDS011;26811;53.160;8.202;2023-02-11T04:10:31;67.72;;;22.60;;
41059;SDS011;26811;53.160;8.202;2023-02-11T04:15:32;56.55;;;18.17;;
41059;SDS011;26811;53.160;8.202;2023-02-11T04:20:33;91.47;;;21.17;;
41059;SDS011;26811;53.160;8.202;2023-02-11T04:25:33;68.03;;;20.33;;
41059;SDS011;26811;53.160;8.202;2023-02-11T04:30:34;57.90;;;19.70;;
41059;SDS011;26811;53.160;8.202;2023-02-11T04:35:34;58.05;;;20.27;;
41059;SDS011;26811;53.160;8.202;2023-02-11T04:40:35;56.92;;;20.35;;
41059;SDS011;26811;53.160;8.202;2023-02-11T04:45:35;56.20;;;19.45;;
41059;SDS011;26811;53.160;8.202;2023-02-11T04:50:36;57.83;;;19.00;;
41059;SDS011;26811;53.160;8.202;2023-02-11T04:55:37;50.25;;;18.75;;
41059;SDS011;26811;53.160;8.202;2023-02-11T05:00:37;56.70;;;18.55;;
41059;SDS011;26811;53.160;8.202;2023-02-11T05:05:38;80.55;;;24.33;;
41059;SDS011;26811;53.160;8.202;2023-02-11T05:10:44;61.25;;;19.85;;
41059;SDS011;26811;53.160;8.202;2023-02-11T05:15:45;48.60;;;18.20;;
41059;SDS011;26811;53.160;8.202;2023-02-11T05:20:46;57.63;;;20.27;;
41059;SDS011;26811;53.160;8.202;2023-02-11T05:25:47;66.20;;;22.42;;
41059;SDS011;26811;53.160;8.202;2023-02-11T05:30:47;67.38;;;24.13;;
41059;SDS011;26811;53.160;8.202;2023-02-11T05:35:48;78.18;;;23.88;;
41059;SDS011;26811;53.160;8.202;2023-02-11T05:40:48;73.97;;;24.35;;
41059;SDS011;26811;53.160;8.202;2023-02-11T05:45:49;64.72;;;21.98;;
41059;SDS011;26811;53.160;8.202;2023-02-11T05:50:49;56.45;;;21.48;;
41059;SDS011;26811;53.160;8.202;2023-02-11T05:55:50;61.20;;;20.83;;
41059;SDS011;26811;53.160;8.202;2023-02-11T06:00:51;59.15;;;21.75;;
41059;SDS011;26811;53.160;8.202;2023-02-11T06:05:51;60.10;;;21.00;;
41059;SDS011;26811;53.160;8.202;2023-02-11T06:10:52;54.38;;;19.88;;
41059;SDS011;26811;53.160;8.202;2023-02-11T06:15:59;53.70;;;21.02;;
41059;SDS011;26811;53.160;8.202;2023-02-11T06:21:01;53.88;;;20.70;;
41059;SDS011;26811;53.160;8.202;2023-02-11T06:26:06;55.92;;;19.40;;
41059;SDS011;26811;53.160;8.202;2023-02-11T06:31:07;55.97;;;20.20;;
41059;SDS011;26811;53.160;8.202;2023-02-11T06:36:16;65.90;;;22.20;;
41059;SDS011;26811;53.160;8.202;2023-02-11T06:41:18;62.38;;;21.15;;
41059;SDS011;26811;53.160;8.202;2023-02-11T06:46:19;52.95;;;21.38;;
41059;SDS011;26811;53.160;8.202;2023-02-11T06:51:20;57.60;;;19.98;;
41059;SDS011;26811;53.160;8.202;2023-02-11T06:56:21;51.65;;;19.80;;
41059;SDS011;26811;53.160;8.202;2023-02-11T07:01:23;50.03;;;19.40;;
41059;SDS011;26811;53.160;8.202;2023-02-11T07:06:25;53.17;;;18.65;;
41059;SDS011;26811;53.160;8.202;2023-02-11T07:11:27;50.03;;;17.67;;
41059;SDS011;26811;53.160;8.202;2023-02-11T07:16:28;46.15;;;16.90;;
41059;SDS011;26811;53.160;8.202;2023-02-11T07:21:29;49.40;;;18.48;;
41059;SDS011;26811;53.160;8.202;2023-02-11T07:26:30;49.28;;;17.98;;
41059;SDS011;26811;53.160;8.202;2023-02-11T07:31:30;50.50;;;17.45;;
41059;SDS011;26811;53.160;8.202;2023-02-11T07:36:32;45.75;;;17.70;;
41059;SDS011;26811;53.160;8.202;2023-02-11T07:41:32;46.35;;;17.15;;
41059;SDS011;26811;53.160;8.202;2023-02-11T07:46:34;55.17;;;17.05;;
41059;SDS011;26811;53.160;8.202;2023-02-11T07:51:34;47.10;;;17.48;;
41059;SDS011;26811;53.160;8.202;2023-02-11T07:56:35;48.33;;;17.33;;
41059;SDS011;26811;53.160;8.202;2023-02-11T08:01:36;46.65;;;17.38;;
41059;SDS011;26811;53.160;8.202;2023-02-11T08:06:39;43.40;;;18.05;;
41059;SDS011;26811;53.160;8.202;2023-02-11T08:11:41;43.88;;;17.33;;
41059;SDS011;26811;53.160;8.202;2023-02-11T08:16:42;45.30;;;16.63;;
41059;SDS011;26811;53.160;8.202;2023-02-11T08:21:43;46.05;;;16.77;;
41059;SDS011;26811;53.160;8.202;2023-02-11T08:26:44;47.33;;;18.00;;
41059;SDS011;26811;53.160;8.202;2023-02-11T08:31:45;54.25;;;18.98;;
41059;SDS011;26811;53.160;8.202;2023-02-11T08:36:47;50.42;;;18.20;;
41059;SDS011;26811;53.160;8.202;2023-02-11T08:41:49;51.17;;;19.65;;
41059;SDS011;26811;53.160;8.202;2023-02-11T08:46:51;49.40;;;18.88;;
41059;SDS011;26811;53.160;8.202;2023-02-11T08:51:53;44.63;;;17.13;;
41059;SDS011;26811;53.160;8.202;2023-02-11T08:56:55;41.80;;;16.25;;
41059;SDS011;26811;53.160;8.202;2023-02-11T09:01:56;44.30;;;17.20;;
41059;SDS011;26811;53.160;8.202;2023-02-11T09:06:56;60.95;;;18.10;;
41059;SDS011;26811;53.160;8.202;2023-02-11T09:11:57;43.17;;;18.27;;
41059;SDS011;26811;53.160;8.202;2023-02-11T09:17:00;58.87;;;19.23;;
41059;SDS011;26811;53.160;8.202;2023-02-11T09:22:00;56.63;;;18.00;;
41059;SDS011;26811;53.160;8.202;2023-02-11T09:27:01;46.30;;;18.88;;
41059;SDS011;26811;53.160;8.202;2023-02-11T09:32:01;49.58;;;18.92;;
41059;SDS011;26811;53.160;8.202;2023-02-11T09:37:02;57.65;;;21.02;;
41059;SDS011;26811;53.160;8.202;2023-02-11T09:42:06;57.33;;;20.20;;
41059;SDS011;26811;53.160;8.202;2023-02-11T09:47:23;57.33;;;20.40;;
41059;SDS011;26811;53.160;8.202;2023-02-11T09:52:38;59.00;;;20.50;;
41059;SDS011;26811;53.160;8.202;2023-02-11T09:57:43;58.80;;;19.60;;
41059;SDS011;26811;53.160;8.202;2023-02-11T10:02:59;67.93;;;20.45;;
41059;SDS011;26811;53.160;8.202;2023-02-11T10:24:51;58.67;;;19.70;;
41059;SDS011;26811;53.160;8.202;2023-02-11T10:29:55;55.20;;;19.23;;
41059;SDS011;26811;53.160;8.202;2023-02-11T10:35:11;58.35;;;18.98;;
41059;SDS011;26811;53.160;8.202;2023-02-11T10:40:18;51.17;;;17.52;;
41059;SDS011;26811;53.160;8.202;2023-02-11T10:45:29;59.65;;;19.25;;
41059;SDS011;26811;53.160;8.202;2023-02-11T10:50:31;58.65;;;18.25;;
41059;SDS011;26811;53.160;8.202;2023-02-11T10:55:34;58.45;;;18.23;;
41059;SDS011;26811;53.160;8.202;2023-02-11T11:00:36;51.78;;;18.23;;
41059;SDS011;26811;53.160;8.202;2023-02-11T11:05:47;62.33;;;24.52;;
41059;SDS011;26811;53.160;8.202;2023-02-11T11:11:00;62.08;;;23.48;;
41059;SDS011;26811;53.160;8.202;2023-02-11T11:21:24;65.00;;;21.13;;
41059;SDS011;26811;53.160;8.202;2023-02-11T11:26:37;61.47;;;20.08;;
41059;SDS011;26811;53.160;8.202;2023-02-11T11:37:10;49.90;;;15.20;;
41059;SDS011;26811;53.160;8.202;2023-02-11T11:48:20;50.15;;;16.95;;
41059;SDS011;26811;53.160;8.202;2023-02-11T11:53:35;56.28;;;16.63;;
41059;SDS011;26811;53.160;8.202;2023-02-11T11:58:39;52.47;;;16.67;;
41059;SDS011;26811;53.160;8.202;2023-02-11T12:14:31;62.10;;;18.83;;
41059;SDS011;26811;53.160;8.202;2023-02-11T12:19:42;42.58;;;15.65;;
41059;SDS011;26811;53.160;8.202;2023-02-11T12:51:39;48.08;;;15.13;;
41059;SDS011;26811;53.160;8.202;2023-02-11T13:02:18;49.05;;;15.55;;
41059;SDS011;26811;53.160;8.202;2023-02-11T13:07:33;50.15;;;15.52;;
41059;SDS011;26811;53.160;8.202;2023-02-11T13:12:39;53.05;;;14.80;;
41059;SDS011;26811;53.160;8.202;2023-02-11T13:23:29;52.88;;;14.48;;
41059;SDS011;26811;53.160;8.202;2023-02-11T13:28:53;51.75;;;14.45;;
41059;SDS011;26811;53.160;8.202;2023-02-11T13:34:21;57.85;;;13.82;;
41059;SDS011;26811;53.160;8.202;2023-02-11T13:39:23;52.03;;;14.13;;
41059;SDS011;26811;53.160;8.202;2023-02-11T13:44:24;52.72;;;15.25;;
41059;SDS011;26811;53.160;8.202;2023-02-11T13:54:36;67.30;;;18.27;;
41059;SDS011;26811;53.160;8.202;2023-02-11T14:15:40;65.95;;;22.00;;
41059;SDS011;26811;53.160;8.202;2023-02-11T14:25:49;42.42;;;11.57;;
41059;SDS011;26811;53.160;8.202;2023-02-11T14:31:10;43.40;;;9.38;;
41059;SDS011;26811;53.160;8.202;2023-02-11T14:36:31;30.88;;;9.50;;
41059;SDS011;26811;53.160;8.202;2023-02-11T14:41:39;36.78;;;8.55;;
41059;SDS011;26811;53.160;8.202;2023-02-11T14:51:43;33.72;;;8.27;;
41059;SDS011;26811;53.160;8.202;2023-02-11T14:56:44;40.78;;;8.98;;
41059;SDS011;26811;53.160;8.202;2023-02-11T15:01:49;40.80;;;8.60;;
41059;SDS011;26811;53.160;8.202;2023-02-11T15:06:53;36.28;;;7.88;;
41059;SDS011;26811;53.160;8.202;2023-02-11T15:11:56;41.40;;;8.07;;
41059;SDS011;26811;53.160;8.202;2023-02-11T15:16:58;38.63;;;8.23;;
41059;SDS011;26811;53.160;8.202;2023-02-11T15:22:15;31.70;;;7.32;;
41059;SDS011;26811;53.160;8.202;2023-02-11T15:27:19;32.15;;;7.78;;
41059;SDS011;26811;53.160;8.202;2023-02-11T15:32:22;37.13;;;6.83;;
41059;SDS011;26811;53.160;8.202;2023-02-11T15:37:26;46.13;;;7.80;;
41059;SDS011;26811;53.160;8.202;2023-02-11T15:42:29;34.33;;;7.13;;
41059;SDS011;26811;53.160;8.202;2023-02-11T15:47:30;46.90;;;11.15;;
41059;SDS011;26811;53.160;8.202;2023-02-11T15:52:30;60.58;;;17.00;;
41059;SDS011;26811;53.160;8.202;2023-02-11T15:57:32;47.35;;;10.85;;
41059;SDS011;26811;53.160;8.202;2023-02-11T16:02:33;61.85;;;17.25;;
41059;SDS011;26811;53.160;8.202;2023-02-11T16:07:44;45.72;;;10.38;;
41059;SDS011;26811;53.160;8.202;2023-02-11T16:12:52;47.88;;;10.30;;
41059;SDS011;26811;53.160;8.202;2023-02-11T16:18:42;37.63;;;8.80;;
41059;SDS011;26811;53.160;8.202;2023-02-11T16:23:37;38.50;;;9.32;;
41059;SDS011;26811;53.160;8.202;2023-02-11T16:28:43;36.47;;;9.68;;
41059;SDS011;26811;53.160;8.202;2023-02-11T16:33:44;44.80;;;9.23;;
41059;SDS011;26811;53.160;8.202;2023-02-11T16:38:44;42.50;;;9.38;;
41059;SDS011;26811;53.160;8.202;2023-02-11T16:43:45;34.92;;;8.52;;
41059;SDS011;26811;53.160;8.202;2023-02-11T16:48:45;43.70;;;8.75;;
41059;SDS011;26811;53.160;8.202;2023-02-11T16:53:46;48.03;;;8.40;;
41059;SDS011;26811;53.160;8.202;2023-02-11T16:58:46;47.67;;;8.48;;
41059;SDS011;26811;53.160;8.202;2023-02-11T17:03:47;47.53;;;8.68;;
41059;SDS011;26811;53.160;8.202;2023-02-11T17:08:48;42.55;;;9.98;;
41059;SDS011;26811;53.160;8.202;2023-02-11T17:13:48;38.78;;;9.05;;
41059;SDS011;26811;53.160;8.202;2023-02-11T17:18:49;50.45;;;9.30;;
41059;SDS011;26811;53.160;8.202;2023-02-11T17:23:50;41.67;;;8.50;;
41059;SDS011;26811;53.160;8.202;2023-02-11T17:28:51;37.50;;;8.68;;
41059;SDS011;26811;53.160;8.202;2023-02-11T17:33:52;50.70;;;10.95;;
41059;SDS011;26811;53.160;8.202;2023-02-11T17:38:53;29.75;;;9.38;;
41059;SDS011;26811;53.160;8.202;2023-02-11T17:43:57;35.08;;;9.50;;
41059;SDS011;26811;53.160;8.202;2023-02-11T17:48:58;45.13;;;9.07;;
41059;SDS011;26811;53.160;8.202;2023-02-11T17:54:02;43.47;;;9.00;;
41059;SDS011;26811;53.160;8.202;2023-02-11T17:59:10;34.17;;;9.10;;
41059;SDS011;26811;53.160;8.202;2023-02-11T18:04:13;45.20;;;9.90;;
41059;SDS011;26811;53.160;8.202;2023-02-11T18:09:16;50.38;;;9.02;;
41059;SDS011;26811;53.160;8.202;2023-02-11T18:14:17;40.50;;;9.38;;
41059;SDS011;26811;53.160;8.202;2023-02-11T18:19:18;42.42;;;8.70;;
41059;SDS011;26811;53.160;8.202;2023-02-11T18:24:19;33.97;;;7.43;;
41059;SDS011;26811;53.160;8.202;2023-02-11T18:29:20;43.60;;;7.72;;
41059;SDS011;26811;53.160;8.202;2023-02-11T18:34:21;34.35;;;8.82;;
41059;SDS011;26811;53.160;8.202;2023-02-11T18:39:22;43.15;;;8.35;;
41059;SDS011;26811;53.160;8.202;2023-02-11T18:44:23;30.65;;;7.93;;
41059;SDS011;26811;53.160;8.202;2023-02-11T18:49:25;43.80;;;9.55;;
41059;SDS011;26811;53.160;8.202;2023-02-11T18:54:25;44.63;;;9.40;;
41059;SDS011;26811;53.160;8.202;2023-02-11T18:59:26;54.42;;;13.60;;
41059;SDS011;26811;53.160;8.202;2023-02-11T19:04:26;58.88;;;15.57;;
41059;SDS011;26811;53.160;8.202;2023-02-11T19:09:27;55.55;;;14.55;;
41059;SDS011;26811;53.160;8.202;2023-02-11T19:14:28;54.53;;;13.90;;
41059;SDS011;26811;53.160;8.202;2023-02-11T19:19:31;44.53;;;11.85;;
41059;SDS011;26811;53.160;8.202;2023-02-11T19:24:33;37.45;;;11.15;;
41059;SDS011;26811;53.160;8.202;2023-02-11T19:29:34;52.08;;;11.02;;
41059;SDS011;26811;53.160;8.202;2023-02-11T19:34:35;31.05;;;9.93;;
41059;SDS011;26811;53.160;8.202;2023-02-11T19:39:40;40.47;;;9.65;;
41059;SDS011;26811;53.160;8.202;2023-02-11T19:44:42;49.47;;;14.57;;
41059;SDS011;26811;53.160;8.202;2023-02-11T19:49:42;48.53;;;15.63;;
41059;SDS011;26811;53.160;8.202;2023-02-11T19:54:43;37.33;;;11.23;;
41059;SDS011;26811;53.160;8.202;2023-02-11T19:59:43;47.60;;;17.25;;
41059;SDS011;26811;53.160;8.202;2023-02-11T20:04:44;52.42;;;20.83;;
41059;SDS011;26811;53.160;8.202;2023-02-11T20:09:45;70.07;;;19.10;;
41059;SDS011;26811;53.160;8.202;2023-02-11T20:14:45;48.25;;;14.05;;
41059;SDS011;26811;53.160;8.202;2023-02-11T20:19:46;49.67;;;12.18;;
41059;SDS011;26811;53.160;8.202;2023-02-11T20:24:46;51.40;;;15.50;;
41059;SDS011;26811;53.160;8.202;2023-02-11T20:29:47;45.17;;;13.00;;
41059;SDS011;26811;53.160;8.202;2023-02-11T20:34:47;52.15;;;12.38;;
41059;SDS011;26811;53.160;8.202;2023-02-11T20:39:48;43.00;;;13.82;;
41059;SDS011;26811;53.160;8.202;2023-02-11T20:44:49;44.05;;;11.10;;
41059;SDS011;26811;53.160;8.202;2023-02-11T20:49:52;39.85;;;9.77;;
41059;SDS011;26811;53.160;8.202;2023-02-11T20:54:53;50.78;;;10.75;;
41059;SDS011;26811;53.160;8.202;2023-02-11T20:59:54;46.40;;;10.10;;
41059;SDS011;26811;53.160;8.202;2023-02-11T21:04:54;41.75;;;9.80;;
41059;SDS011;26811;53.160;8.202;2023-02-11T21:09:55;34.38;;;9.55;;
41059;SDS011;26811;53.160;8.202;2023-02-11T21:14:55;39.55;;;9.90;;
41059;SDS011;26811;53.160;8.202;2023-02-11T21:19:56;36.63;;;9.07;;
41059;SDS011;26811;53.160;8.202;2023-02-11T21:24:57;42.65;;;9.40;;
41059;SDS011;26811;53.160;8.202;2023-02-11T21:29:58;42.15;;;8.48;;
41059;SDS011;26811;53.160;8.202;2023-02-11T21:35:00;28.50;;;7.80;;
41059;SDS011;26811;53.160;8.202;2023-02-11T21:40:00;31.08;;;7.47;;
41059;SDS011;26811;53.160;8.202;2023-02-11T21:45:01;44.45;;;8.60;;
41059;SDS011;26811;53.160;8.202;2023-02-11T21:50:01;44.67;;;10.10;;
41059;SDS011;26811;53.160;8.202;2023-02-11T21:55:02;54.08;;;10.50;;
41059;SDS011;26811;53.160;8.202;2023-02-11T22:00:04;61.17;;;10.57;;
41059;SDS011;26811;53.160;8.202;2023-02-11T22:05:06;53.43;;;9.57;;
41059;SDS011;26811;53.160;8.202;2023-02-11T22:10:07;42.63;;;10.27;;
41059;SDS011;26811;53.160;8.202;2023-02-11T22:15:08;50.45;;;10.30;;
41059;SDS011;26811;53.160;8.202;2023-02-11T22:20:09;41.22;;;10.23;;
41059;SDS011;26811;53.160;8.202;2023-02-11T22:25:10;46.95;;;11.77;;
41059;SDS011;26811;53.160;8.202;2023-02-11T22:30:10;56.15;;;13.65;;
41059;SDS011;26811;53.160;8.202;2023-02-11T22:35:11;55.78;;;11.68;;
41059;SDS011;26811;53.160;8.202;2023-02-11T22:40:12;51.33;;;12.77;;
41059;SDS011;26811;53.160;8.202;2023-02-11T22:45:13;46.60;;;12.02;;
41059;SDS011;26811;53.160;8.202;2023-02-11T22:50:13;66.03;;;22.85;;
41059;SDS011;26811;53.160;8.202;2023-02-11T22:55:14;56.17;;;17.58;;
41059;SDS011;26811;53.160;8.202;2023-02-11T23:00:14;55.05;;;18.42;;
41059;SDS011;26811;53.160;8.202;2023-02-11T23:05:16;58.55;;;16.08;;
41059;SDS011;26811;53.160;8.202;2023-02-11T23:10:16;60.42;;;17.90;;
41059;SDS011;26811;53.160;8.202;2023-02-11T23:15:17;62.30;;;21.52;;
41059;SDS011;26811;53.160;8.202;2023-02-11T23:20:18;55.22;;;15.52;;
41059;SDS011;26811;53.160;8.202;2023-02-11T23:25:18;52.67;;;16.02;;
41059;SDS011;26811;53.160;8.202;2023-02-11T23:30:19;40.33;;;14.68;;
41059;SDS011;26811;53.160;8.202;2023-02-11T23:35:20;43.53;;;15.00;;
41059;SDS011;26811;53.160;8.202;2023-02-11T23:40:22;39.90;;;14.63;;
41059;SDS011;26811;53.160;8.202;2023-02-11T23:45:22;44.22;;;14.07;;
41059;SDS011;26811;53.160;8.202;2023-02-11T23:50:23;37.65;;;14.65;;
41059;SDS011;26811;53.160;8.202;2023-02-11T23:55:23;42.65;;;16.40;;
